Time;durP1;ratioP1;P1;durP2;ratioP2;P2;SDS_P1;SDS_P2;PMS_P1;PMS_P2;Temp;Humidity;BMP_temperature;BMP_pressure;BME280_temperature;BME280_humidity;BME280_pressure;Samples;Min_cycle;Max_cycle;Signal;HPM_P1;HPM_P2
2023/03/30 00:00:45;;;;;;;;;;;;;;;21.64;74.37;100436.66;4987558;28;19921;-52
2023/03/30 00:03:11;;;;;;;;;;;;;;;21.18;80.80;100426.78;4989730;28;19922;-50
2023/03/30 00:05:37;;;;;;;;;;;;;;;21.49;79.86;100404.91;4989845;28;19964;-53
2023/03/30 00:08:03;;;;;;;;;;;;;;;21.16;78.31;100390.91;4994910;28;19914;-55
2023/03/30 00:10:28;;;;;;;;;;;;;;;21.16;79.26;100386.28;4988109;28;19941;-54
2023/03/30 00:12:54;;;;;;;;;;;;;;;21.15;78.27;100403.69;4989746;28;19936;-51
2023/03/30 00:15:20;;;;;;;;;;;;;;;21.20;76.95;100392.78;4986709;28;19914;-54
2023/03/30 00:17:46;;;;;;;;;;;;;;;21.26;76.79;100393.59;4995363;28;19917;-54
2023/03/30 00:20:12;;;;;;;;;;;;;;;21.14;77.33;100387.66;4989788;28;19982;-50
2023/03/30 00:22:38;;;;;;;;;;;;;;;21.34;74.45;100398.44;4988667;28;19918;-50
2023/03/30 00:25:05;;;;;;;;;;;;;;;21.38;74.88;100397.88;4987982;28;19916;-53
2023/03/30 00:27:30;;;;;;;;;;;;;;;21.58;72.95;100396.97;4988162;28;19918;-48
2023/03/30 00:29:55;;;;;;;;;;;;;;;21.95;70.89;100400.31;4979738;28;19918;-51
2023/03/30 00:32:20;;;;;;;;;;;;;;;21.91;69.05;100400.88;4985235;28;19921;-51
2023/03/30 00:34:48;;;;;;;;;;;;;;;22.14;68.35;100398.53;4980906;28;19961;-53
2023/03/30 00:37:14;;;;;;;;;;;;;;;22.09;67.41;100401.28;5014251;28;19918;-53
2023/03/30 00:39:39;;;;;;;;;;;;;;;22.17;66.51;100402.59;4991826;28;19930;-54
2023/03/30 00:42:04;;;;;;;;;;;;;;;22.17;66.00;100391.69;4984626;28;19933;-48
2023/03/30 00:44:49;;;;;;;;;;;;;;;22.43;64.79;100392.31;4987395;28;20031;-54
2023/03/30 00:47:15;;;;;;;;;;;;;;;22.25;64.54;100382.91;4978033;28;19922;-55
2023/03/30 00:49:42;;;;;;;;;;;;;;;22.93;63.16;100369.47;4992848;28;19913;-54
2023/03/30 00:52:08;;;;;;;;;;;;;;;22.33;64.14;100368.69;4986350;28;19921;-52
2023/03/30 00:54:34;;;;;;;;;;;;;;;23.08;62.26;100352.13;4981823;28;19981;-54
2023/03/30 00:56:59;;;;;;;;;;;;;;;23.18;62.13;100351.19;4986919;28;19921;-54
2023/03/30 00:59:25;;;;;;;;;;;;;;;22.85;62.16;100342.88;4990767;28;19910;-51
2023/03/30 01:01:50;;;;;;;;;;;;;;;23.18;61.68;100335.66;4986741;28;19953;-51
2023/03/30 01:04:16;;;;;;;;;;;;;;;23.15;61.01;100329.94;4996937;28;19936;-53
2023/03/30 01:06:45;;;;;;;;;;;;;;;23.09;61.37;100328.41;4987132;28;19914;-52
2023/03/30 01:09:11;;;;;;;;;;;;;;;23.23;60.79;100329.28;4984765;28;19921;-52
2023/03/30 01:11:37;;;;;;;;;;;;;;;22.50;61.73;100334.81;4982257;28;19921;-53
2023/03/30 01:14:05;;;;;;;;;;;;;;;22.42;62.18;100330.75;4989760;28;19961;-50
2023/03/30 01:16:34;;;;;;;;;;;;;;;22.71;60.63;100327.19;4984154;28;19918;-51
2023/03/30 01:19:03;;;;;;;;;;;;;;;22.41;61.50;100334.59;5014989;28;19922;-50
2023/03/30 01:21:40;;;;;;;;;;;;;;;22.43;61.57;100353.34;4983953;28;19918;-52
2023/03/30 01:24:33;;;;;;;;;;;;;;;22.70;61.18;100347.38;4968841;28;19914;-52
2023/03/30 01:27:14;;;;;;;;;;;;;;;22.69;60.88;100339.47;4967371;28;19914;-56
2023/03/30 01:29:39;;;;;;;;;;;;;;;22.45;61.36;100341.06;4983738;28;19921;-53
2023/03/30 01:32:07;;;;;;;;;;;;;;;22.55;60.98;100337.47;4985410;28;19910;-54
2023/03/30 01:34:39;;;;;;;;;;;;;;;22.65;60.85;100346.63;4981224;28;19921;-55
2023/03/30 01:37:16;;;;;;;;;;;;;;;22.73;60.05;100341.34;4980157;28;19933;-54
2023/03/30 01:39:44;;;;;;;;;;;;;;;22.51;60.64;100341.03;4982587;28;19925;-53
2023/03/30 01:42:11;;;;;;;;;;;;;;;22.66;60.16;100343.63;4986252;28;19922;-55
2023/03/30 01:44:49;;;;;;;;;;;;;;;22.15;60.97;100348.44;5011122;28;19925;-54
2023/03/30 01:47:22;;;;;;;;;;;;;;;22.82;60.01;100316.16;4983142;28;19949;-56
2023/03/30 01:49:58;;;;;;;;;;;;;;;23.33;58.13;100293.72;4986025;28;19914;-55
2023/03/30 01:52:52;;;;;;;;;;;;;;;22.81;59.20;100293.56;4980078;28;23420;-54
2023/03/30 01:55:20;;;;;;;;;;;;;;;23.05;59.16;100288.06;4983153;28;19914;-54
2023/03/30 01:58:04;;;;;;;;;;;;;;;22.61;59.33;100295.44;4975032;28;19921;-50
2023/03/30 02:00:30;;;;;;;;;;;;;;;22.56;59.97;100287.31;4971122;28;19914;-54
2023/03/30 02:02:59;;;;;;;;;;;;;;;23.04;59.03;100297.34;4993700;28;19928;-55
2023/03/30 02:05:26;;;;;;;;;;;;;;;23.00;58.77;100293.59;4986978;28;19933;-55
2023/03/30 02:07:57;;;;;;;;;;;;;;;23.02;58.98;100313.19;4987929;28;19929;-53
2023/03/30 02:10:25;;;;;;;;;;;;;;;22.63;59.98;100301.41;4970866;28;19921;-54
2023/03/30 02:12:53;;;;;;;;;;;;;;;22.46;60.14;100310.03;4983728;28;19940;-50
2023/03/30 02:15:18;;;;;;;;;;;;;;;22.33;60.40;100305.22;4988810;28;19914;-52
2023/03/30 02:17:46;;;;;;;;;;;;;;;22.22;60.59;100292.81;5006021;28;19977;-56
2023/03/30 02:20:15;;;;;;;;;;;;;;;22.45;60.55;100319.28;4992828;28;19936;-55
2023/03/30 02:22:42;;;;;;;;;;;;;;;22.32;61.05;100319.94;4985992;28;19923;-54
2023/03/30 02:25:08;;;;;;;;;;;;;;;21.77;62.62;100327.22;4987903;28;19921;-54
2023/03/30 02:27:35;;;;;;;;;;;;;;;22.46;61.11;100323.66;4979202;28;19913;-54
2023/03/30 02:30:02;;;;;;;;;;;;;;;22.19;62.27;100326.88;4987295;28;19998;-54
2023/03/30 02:32:30;;;;;;;;;;;;;;;22.36;61.60;100340.06;5007181;28;19914;-50
2023/03/30 02:35:07;;;;;;;;;;;;;;;22.26;62.35;100327.38;5007365;28;19914;-50
2023/03/30 02:37:52;;;;;;;;;;;;;;;22.12;63.42;100340.81;5002498;28;19948;-52
2023/03/30 02:40:21;;;;;;;;;;;;;;;22.33;63.78;100333.28;4955510;29;19926;-52
2023/03/30 02:42:58;;;;;;;;;;;;;;;22.28;63.76;100336.06;4953380;29;19926;-54
2023/03/30 02:45:31;;;;;;;;;;;;;;;22.16;64.40;100328.28;4956817;29;19946;-53
2023/03/30 02:48:06;;;;;;;;;;;;;;;21.97;65.30;100332.78;4949345;28;19926;-53
2023/03/30 02:50:40;;;;;;;;;;;;;;;22.24;65.02;100328.75;4949714;29;19946;-53
2023/03/30 02:53:30;;;;;;;;;;;;;;;21.86;66.53;100337.50;4956466;28;20326;-55
2023/03/30 02:56:18;;;;;;;;;;;;;;;22.01;66.87;100331.13;4954206;29;19922;-51
2023/03/30 02:59:03;;;;;;;;;;;;;;;21.66;68.97;100331.09;4954819;28;19923;-52
2023/03/30 03:01:32;;;;;;;;;;;;;;;22.33;67.49;100332.47;4956814;29;19934;-52
2023/03/30 03:04:05;;;;;;;;;;;;;;;21.92;68.51;100334.47;4951045;29;19926;-52
2023/03/30 03:06:41;;;;;;;;;;;;;;;21.81;69.94;100341.06;4950985;29;20388;-54
2023/03/30 03:09:07;;;;;;;;;;;;;;;21.29;72.47;100325.03;4947429;29;19919;-54
2023/03/30 03:11:34;;;;;;;;;;;;;;;21.93;72.43;100318.94;4953354;29;19942;-51
2023/03/30 03:14:00;;;;;;;;;;;;;;;22.17;70.73;100320.91;4954643;28;19922;-51
2023/03/30 03:16:27;;;;;;;;;;;;;;;22.01;73.99;100312.88;4953038;29;19922;-53
2023/03/30 03:19:06;;;;;;;;;;;;;;;21.87;74.55;100306.47;4949624;29;19919;-50
2023/03/30 03:21:32;;;;;;;;;;;;;;;22.24;74.23;100290.63;4955333;28;19921;-52
2023/03/30 03:23:57;;;;;;;;;;;;;;;21.86;76.06;100292.03;4949137;29;19915;-50
2023/03/30 03:26:35;;;;;;;;;;;;;;;22.55;73.19;100279.41;4954208;29;19942;-52
2023/03/30 03:29:00;;;;;;;;;;;;;;;22.21;74.10;100292.00;4950064;28;19923;-50
2023/03/30 03:31:26;;;;;;;;;;;;;;;21.83;75.86;100300.78;4951274;29;19953;-55
2023/03/30 03:33:51;;;;;;;;;;;;;;;21.16;78.47;100312.06;4950436;28;19914;-52
2023/03/30 03:36:21;;;;;;;;;;;;;;;21.57;77.77;100294.69;4950842;29;19937;-52
2023/03/30 03:38:51;;;;;;;;;;;;;;;21.18;79.02;100290.84;4956537;28;19956;-53
2023/03/30 03:41:16;;;;;;;;;;;;;;;21.47;78.11;100285.50;4968941;28;19914;-52
2023/03/30 03:43:42;;;;;;;;;;;;;;;21.31;78.85;100292.94;4970495;28;19926;-53
2023/03/30 03:46:08;;;;;;;;;;;;;;;21.49;79.27;100293.38;4966654;28;19941;-50
2023/03/30 03:48:34;;;;;;;;;;;;;;;21.73;77.40;100309.03;4967283;28;19973;-52
2023/03/30 03:50:59;;;;;;;;;;;;;;;21.38;79.86;100291.81;4969208;28;19921;-47
2023/03/30 03:53:28;;;;;;;;;;;;;;;22.17;79.65;100294.50;4968290;28;19945;-50
2023/03/30 03:55:58;;;;;;;;;;;;;;;21.78;77.76;100288.00;4967140;28;20258;-52
2023/03/30 03:58:25;;;;;;;;;;;;;;;21.67;78.76;100280.22;4967793;28;19914;-53
2023/03/30 04:00:56;;;;;;;;;;;;;;;21.40;80.43;100268.69;4969889;28;19920;-52
2023/03/30 04:03:21;;;;;;;;;;;;;;;22.09;78.63;100262.44;4967981;28;19962;-52
2023/03/30 04:05:47;;;;;;;;;;;;;;;21.29;81.60;100262.50;4971754;28;19914;-49
2023/03/30 04:08:13;;;;;;;;;;;;;;;21.54;80.95;100271.59;4971644;28;19919;-50
2023/03/30 04:10:39;;;;;;;;;;;;;;;21.75;80.07;100266.00;4973002;28;19914;-54
2023/03/30 04:13:16;;;;;;;;;;;;;;;21.75;80.58;100269.53;4970322;28;19914;-51
2023/03/30 04:16:03;;;;;;;;;;;;;;;21.84;80.79;100261.56;4951686;28;19918;-50
2023/03/30 04:18:47;;;;;;;;;;;;;;;21.91;80.47;100269.41;4969619;28;19921;-50
2023/03/30 04:21:48;;;;;;;;;;;;;;;22.04;79.28;100259.75;4968885;28;19941;-52
2023/03/30 04:24:36;;;;;;;;;;;;;;;21.78;80.82;100276.31;4967258;28;19940;-52
2023/03/30 04:27:24;;;;;;;;;;;;;;;21.76;81.51;100262.19;4970806;28;19941;-51
2023/03/30 04:29:50;;;;;;;;;;;;;;;22.22;77.53;100255.50;4970790;28;19915;-51
2023/03/30 04:32:40;;;;;;;;;;;;;;;21.93;78.98;100259.03;4970442;28;19939;-52
2023/03/30 04:35:24;;;;;;;;;;;;;;;22.00;80.19;100269.59;4962698;28;19937;-54
2023/03/30 04:37:59;;;;;;;;;;;;;;;21.60;84.28;100272.38;4970679;28;19925;-53
2023/03/30 04:40:43;;;;;;;;;;;;;;;21.33;87.90;100279.88;4989173;28;19920;-54
2023/03/30 04:43:36;;;;;;;;;;;;;;;20.41;100.00;100262.03;4990664;28;19981;-50
2023/03/30 04:46:12;;;;;;;;;;;;;;;19.90;100.00;100267.25;4996369;28;19914;-55
2023/03/30 04:48:56;;;;;;;;;;;;;;;19.91;100.00;100252.63;4988444;28;19921;-54
2023/03/30 04:51:44;;;;;;;;;;;;;;;19.95;100.00;100252.09;4994447;28;19929;-56
2023/03/30 04:54:30;;;;;;;;;;;;;;;20.18;100.00;100262.38;5024715;28;19914;-55
2023/03/30 04:57:15;;;;;;;;;;;;;;;19.87;100.00;100265.09;4988281;28;19920;-55
2023/03/30 04:59:59;;;;;;;;;;;;;;;20.17;100.00;100271.59;4990040;28;19981;-53
2023/03/30 05:02:45;;;;;;;;;;;;;;;20.59;100.00;100276.94;4988237;28;19918;-57
2023/03/30 05:05:33;;;;;;;;;;;;;;;20.84;100.00;100278.75;4986677;28;19929;-53
2023/03/30 05:08:27;;;;;;;;;;;;;;;19.90;100.00;100283.53;4922493;28;19981;-51
2023/03/30 05:11:13;;;;;;;;;;;;;;;19.87;100.00;100278.66;5000613;28;19914;-55
2023/03/30 05:14:01;;;;;;;;;;;;;;;20.58;100.00;100288.91;4988836;28;19944;-54
2023/03/30 05:16:43;;;;;;;;;;;;;;;20.84;100.00;100291.56;4994997;28;19913;-56
2023/03/30 05:19:24;;;;;;;;;;;;;;;19.99;100.00;100275.69;4982318;28;19995;-57
2023/03/30 05:22:01;;;;;;;;;;;;;;;20.02;100.00;100274.31;4999721;28;19997;-54
2023/03/30 05:24:45;;;;;;;;;;;;;;;19.76;100.00;100277.84;4989928;28;19925;-58
2023/03/30 05:27:21;;;;;;;;;;;;;;;19.58;100.00;100271.03;4993197;28;19968;-55
2023/03/30 05:30:08;;;;;;;;;;;;;;;20.86;100.00;100275.78;4986769;28;19957;-55
2023/03/30 05:32:53;;;;;;;;;;;;;;;20.55;100.00;100270.44;4987519;28;19921;-58
2023/03/30 05:35:37;;;;;;;;;;;;;;;20.21;100.00;100269.16;4993795;28;19925;-57
2023/03/30 05:38:22;;;;;;;;;;;;;;;20.30;100.00;100291.94;4975208;28;19926;-54
2023/03/30 05:41:07;;;;;;;;;;;;;;;20.39;100.00;100284.06;4948848;28;19914;-56
2023/03/30 05:43:42;;;;;;;;;;;;;;;19.81;100.00;100284.34;4953024;29;19926;-57
2023/03/30 05:46:16;;;;;;;;;;;;;;;20.19;100.00;100283.00;4953087;29;19915;-57
2023/03/30 05:48:49;;;;;;;;;;;;;;;20.25;100.00;100286.53;4952961;29;19980;-57
2023/03/30 05:51:36;;;;;;;;;;;;;;;20.07;100.00;100290.63;4945472;29;19930;-54
2023/03/30 05:54:10;;;;;;;;;;;;;;;21.19;100.00;100287.03;4951665;29;19914;-56
2023/03/30 05:56:47;;;;;;;;;;;;;;;20.37;100.00;100280.78;4950543;29;19982;-56
2023/03/30 05:59:27;;;;;;;;;;;;;;;19.96;100.00;100278.13;4954411;29;19934;-57
2023/03/30 06:02:00;;;;;;;;;;;;;;;19.40;100.00;100298.69;4943961;29;20259;-54
2023/03/30 06:04:26;;;;;;;;;;;;;;;19.62;100.00;100288.41;4953361;29;19925;-57
2023/03/30 06:06:52;;;;;;;;;;;;;;;19.60;100.00;100295.97;4953490;28;20589;-54
2023/03/30 06:09:18;;;;;;;;;;;;;;;20.74;100.00;100295.88;4951177;29;19915;-57
2023/03/30 06:11:44;;;;;;;;;;;;;;;19.57;100.00;100312.78;4950340;29;19915;-53
2023/03/30 06:14:18;;;;;;;;;;;;;;;19.57;100.00;100291.09;4946554;28;20037;-55
2023/03/30 06:17:03;;;;;;;;;;;;;;;20.45;100.00;100291.09;4963517;28;19972;-57
2023/03/30 06:19:29;;;;;;;;;;;;;;;22.58;100.00;100300.63;4957630;28;19925;-57
2023/03/30 06:21:54;;;;;;;;;;;;;;;20.62;100.00;100298.13;4948137;28;19918;-56
2023/03/30 06:24:37;;;;;;;;;;;;;;;19.97;100.00;100299.59;4953859;28;19915;-54
2023/03/30 06:27:03;;;;;;;;;;;;;;;19.54;100.00;100299.78;4952020;29;19914;-51
2023/03/30 06:29:30;;;;;;;;;;;;;;;19.83;100.00;100293.03;4966739;28;19915;-52
2023/03/30 06:31:57;;;;;;;;;;;;;;;21.04;100.00;100306.94;4951140;29;19990;-57
2023/03/30 06:34:47;;;;;;;;;;;;;;;19.42;100.00;100302.75;4950685;28;19915;-57
2023/03/30 06:37:14;;;;;;;;;;;;;;;19.27;100.00;100295.38;4964258;28;19978;-54
2023/03/30 06:39:40;;;;;;;;;;;;;;;20.04;100.00;100300.13;4967543;28;19923;-55
2023/03/30 06:42:05;;;;;;;;;;;;;;;21.15;100.00;100319.41;4971555;28;19965;-55
2023/03/30 06:44:57;;;;;;;;;;;;;;;19.24;100.00;100325.75;4948352;28;19929;-55
2023/03/30 06:47:23;;;;;;;;;;;;;;;21.06;100.00;100321.91;4949216;29;19915;-55
2023/03/30 06:49:49;;;;;;;;;;;;;;;21.15;100.00;100318.59;4969879;28;19926;-52
2023/03/30 06:52:27;;;;;;;;;;;;;;;21.44;100.00;100323.31;4966484;28;19941;-54
2023/03/30 06:54:53;;;;;;;;;;;;;;;19.59;100.00;100323.38;4969053;28;19917;-52
2023/03/30 06:57:18;;;;;;;;;;;;;;;19.71;100.00;100318.50;4967484;28;19922;-57
2023/03/30 06:59:44;;;;;;;;;;;;;;;19.96;100.00;100327.81;4971425;28;19915;-52
2023/03/30 07:02:18;;;;;;;;;;;;;;;19.84;100.00;100328.03;4971415;28;19940;-54
2023/03/30 07:05:14;;;;;;;;;;;;;;;20.68;100.00;100334.22;4988936;28;19922;-53
2023/03/30 07:07:46;;;;;;;;;;;;;;;20.02;100.00;100340.28;4970725;28;19961;-54
2023/03/30 07:10:12;;;;;;;;;;;;;;;20.63;100.00;100345.91;4965483;28;19915;-53
2023/03/30 07:12:38;;;;;;;;;;;;;;;19.90;100.00;100336.97;4965604;28;19915;-54
2023/03/30 07:15:05;;;;;;;;;;;;;;;19.99;100.00;100345.44;4969379;28;19973;-53
2023/03/30 07:17:32;;;;;;;;;;;;;;;19.84;100.00;100333.47;4967240;28;19914;-55
2023/03/30 07:19:57;;;;;;;;;;;;;;;20.23;100.00;100372.84;4965310;28;19914;-49
2023/03/30 07:22:23;;;;;;;;;;;;;;;20.16;100.00;100356.84;4968106;28;19918;-53
2023/03/30 07:24:51;;;;;;;;;;;;;;;20.88;100.00;100338.81;4980278;28;19923;-53
2023/03/30 07:27:18;;;;;;;;;;;;;;;20.89;100.00;100354.03;4969752;28;19914;-54
2023/03/30 07:29:45;;;;;;;;;;;;;;;20.46;100.00;100366.03;4967536;28;19915;-53
2023/03/30 07:32:10;;;;;;;;;;;;;;;20.40;100.00;100380.72;4967896;28;19925;-55
2023/03/30 07:34:35;;;;;;;;;;;;;;;20.18;100.00;100362.81;4968883;28;19914;-51
2023/03/30 07:37:01;;;;;;;;;;;;;;;20.32;100.00;100367.69;4971723;28;19915;-51
2023/03/30 07:39:30;;;;;;;;;;;;;;;22.26;95.01;100367.41;4964327;28;19973;-51
2023/03/30 07:41:55;;;;;;;;;;;;;;;20.82;95.40;100377.97;4966741;28;19942;-51
2023/03/30 07:44:22;;;;;;;;;;;;;;;20.12;100.00;100376.66;4968078;28;19915;-50
2023/03/30 07:46:47;;;;;;;;;;;;;;;19.98;100.00;100365.50;4964061;28;19918;-52
2023/03/30 07:49:19;;;;;;;;;;;;;;;20.00;100.00;100385.88;4964720;28;19924;-52
2023/03/30 07:51:46;;;;;;;;;;;;;;;20.44;100.00;100365.50;4964990;28;19946;-53
2023/03/30 07:54:20;;;;;;;;;;;;;;;21.06;99.54;100378.97;4966356;28;19922;-53
2023/03/30 07:57:05;;;;;;;;;;;;;;;20.64;100.00;100382.84;4965616;28;19981;-52
2023/03/30 07:59:31;;;;;;;;;;;;;;;20.19;100.00;100393.50;4969130;28;19941;-52
2023/03/30 08:02:05;;;;;;;;;;;;;;;21.40;99.48;100398.41;4961842;28;19923;-51
2023/03/30 08:04:43;;;;;;;;;;;;;;;21.81;94.69;100391.97;4968884;28;19922;-52
2023/03/30 08:07:10;;;;;;;;;;;;;;;20.48;97.49;100398.38;4970155;28;19918;-55
2023/03/30 08:09:35;;;;;;;;;;;;;;;21.16;94.74;100415.38;4970065;28;19929;-49
2023/03/30 08:12:00;;;;;;;;;;;;;;;20.98;94.59;100425.75;4971499;28;19918;-52
2023/03/30 08:14:26;;;;;;;;;;;;;;;20.49;100.00;100405.44;4967459;28;19922;-56
2023/03/30 08:16:52;;;;;;;;;;;;;;;20.27;99.75;100408.41;4966946;28;19921;-55
2023/03/30 08:19:18;;;;;;;;;;;;;;;20.61;100.00;100386.94;4966827;28;19915;-55
2023/03/30 08:21:44;;;;;;;;;;;;;;;20.24;100.00;100400.81;4970324;28;19915;-53
2023/03/30 08:24:09;;;;;;;;;;;;;;;20.78;95.43;100427.41;4967043;28;19914;-53
2023/03/30 08:26:36;;;;;;;;;;;;;;;20.95;96.70;100410.00;4965925;28;19968;-56
2023/03/30 08:29:02;;;;;;;;;;;;;;;21.25;92.13;100402.84;4969368;28;19918;-54
2023/03/30 08:31:31;;;;;;;;;;;;;;;20.28;97.71;100418.19;4968268;28;19911;-52
2023/03/30 08:33:56;;;;;;;;;;;;;;;20.94;93.79;100413.00;4962733;28;19914;-54
2023/03/30 08:36:22;;;;;;;;;;;;;;;20.56;96.76;100410.59;4966944;28;19937;-50
2023/03/30 08:38:48;;;;;;;;;;;;;;;20.97;90.53;100407.00;4974034;28;19985;-53
2023/03/30 08:41:28;;;;;;;;;;;;;;;21.16;93.27;100426.25;4990212;28;19921;-53
2023/03/30 08:43:53;;;;;;;;;;;;;;;21.54;89.35;100421.19;4985386;28;20009;-52
2023/03/30 08:46:19;;;;;;;;;;;;;;;21.88;88.34;100430.56;4987967;28;19918;-52
2023/03/30 08:48:45;;;;;;;;;;;;;;;20.51;89.95;100440.44;4987815;28;19914;-53
2023/03/30 08:51:18;;;;;;;;;;;;;;;20.37;99.87;100427.44;4988837;28;19922;-51
2023/03/30 08:53:44;;;;;;;;;;;;;;;20.62;100.00;100433.94;4987585;28;19949;-53
2023/03/30 08:56:18;;;;;;;;;;;;;;;20.53;100.00;100446.41;4984511;28;19945;-51
2023/03/30 08:58:55;;;;;;;;;;;;;;;20.35;100.00;100432.31;4986362;28;19918;-54
2023/03/30 09:01:35;;;;;;;;;;;;;;;21.72;97.38;100448.91;4981700;28;20313;-51
2023/03/30 09:04:00;;;;;;;;;;;;;;;20.67;100.00;100428.50;4983252;28;19945;-55
2023/03/30 09:06:29;;;;;;;;;;;;;;;21.11;100.00;100445.28;4986160;28;19914;-52
2023/03/30 09:08:54;;;;;;;;;;;;;;;21.50;94.59;100436.47;4982567;28;19982;-52
2023/03/30 09:11:32;;;;;;;;;;;;;;;22.29;90.20;100445.81;4987079;28;19899;-53
2023/03/30 09:14:00;;;;;;;;;;;;;;;22.11;85.78;100444.59;4987398;28;19914;-52
2023/03/30 09:16:35;;;;;;;;;;;;;;;21.88;87.33;100450.44;4988879;28;19923;-49
2023/03/30 09:19:02;;;;;;;;;;;;;;;22.48;84.82;100452.22;4986020;28;20012;-53
2023/03/30 09:21:28;;;;;;;;;;;;;;;21.97;83.91;100458.81;4988493;28;19914;-53
2023/03/30 09:23:59;;;;;;;;;;;;;;;21.27;87.83;100460.47;4987495;28;20277;-53
2023/03/30 09:26:44;;;;;;;;;;;;;;;22.27;83.09;100480.69;4983453;28;19915;-53
2023/03/30 09:29:18;;;;;;;;;;;;;;;22.55;83.10;100461.97;4987461;28;19939;-49
2023/03/30 09:31:47;;;;;;;;;;;;;;;22.62;79.73;100473.38;4986380;28;19917;-57
2023/03/30 09:34:24;;;;;;;;;;;;;;;21.38;81.94;100460.44;4985201;28;19914;-54
2023/03/30 09:36:56;;;;;;;;;;;;;;;21.35;81.84;100478.94;4988361;28;19944;-50
2023/03/30 09:39:26;;;;;;;;;;;;;;;21.85;78.98;100474.69;4986738;28;19929;-51
2023/03/30 09:42:03;;;;;;;;;;;;;;;24.05;71.48;100487.63;4986680;28;19918;-49
2023/03/30 09:44:31;;;;;;;;;;;;;;;23.59;69.48;100484.38;4986112;28;19936;-54
2023/03/30 09:46:58;;;;;;;;;;;;;;;24.09;68.42;100485.94;4979145;28;19950;-56
2023/03/30 09:49:26;;;;;;;;;;;;;;;23.82;67.85;100514.69;4983266;28;19966;-54
2023/03/30 09:51:53;;;;;;;;;;;;;;;23.51;66.95;100492.41;4982439;28;19978;-54
2023/03/30 09:54:20;;;;;;;;;;;;;;;23.71;68.63;100480.41;4984713;28;19914;-49
2023/03/30 09:56:50;;;;;;;;;;;;;;;25.47;64.40;100480.31;4987233;28;19945;-56
2023/03/30 09:59:44;;;;;;;;;;;;;;;26.48;58.49;100504.13;4985767;28;19921;-55
2023/03/30 10:02:09;;;;;;;;;;;;;;;24.91;61.21;100500.22;4985852;28;19918;-55
2023/03/30 10:04:55;;;;;;;;;;;;;;;23.55;63.58;100513.38;4989014;28;19918;-52
2023/03/30 10:07:24;;;;;;;;;;;;;;;23.22;65.16;100502.22;4986797;28;19989;-53
2023/03/30 10:09:49;;;;;;;;;;;;;;;23.80;64.21;100486.03;4989809;28;19973;-55
2023/03/30 10:12:15;;;;;;;;;;;;;;;24.19;63.42;100493.97;4982940;28;19914;-54
2023/03/30 10:14:40;;;;;;;;;;;;;;;23.58;63.34;100501.03;4983713;28;19941;-53
2023/03/30 10:17:06;;;;;;;;;;;;;;;23.58;64.43;100496.41;4990327;28;19918;-52
2023/03/30 10:19:33;;;;;;;;;;;;;;;22.12;66.68;100520.53;4988131;28;19921;-55
2023/03/30 10:22:03;;;;;;;;;;;;;;;23.15;66.22;100509.94;4984977;28;19944;-56
2023/03/30 10:24:30;;;;;;;;;;;;;;;23.01;65.64;100524.25;4992831;28;19986;-57
2023/03/30 10:26:57;;;;;;;;;;;;;;;22.43;68.44;100517.63;4989485;28;19921;-55
2023/03/30 10:29:25;;;;;;;;;;;;;;;23.34;66.22;100516.34;4989216;28;19918;-54
2023/03/30 10:32:02;;;;;;;;;;;;;;;23.73;64.94;100513.69;4991308;28;19933;-54
2023/03/30 10:34:34;;;;;;;;;;;;;;;23.03;66.26;100518.53;4989651;28;19949;-56
2023/03/30 10:37:02;;;;;;;;;;;;;;;22.46;68.32;100516.22;4989471;28;19920;-55
2023/03/30 10:39:29;;;;;;;;;;;;;;;22.94;68.37;100517.50;4992316;28;19925;-55
2023/03/30 10:41:55;;;;;;;;;;;;;;;22.65;68.23;100515.56;4994827;28;19925;-55
2023/03/30 10:44:22;;;;;;;;;;;;;;;23.20;66.02;100520.81;4984909;28;19949;-55
2023/03/30 10:46:49;;;;;;;;;;;;;;;24.27;64.30;100516.28;4988238;28;19945;-53
2023/03/30 10:49:34;;;;;;;;;;;;;;;23.42;65.94;100524.97;4984828;28;19914;-55
2023/03/30 10:52:07;;;;;;;;;;;;;;;23.52;66.38;100527.56;4988789;28;19993;-53
2023/03/30 10:55:02;;;;;;;;;;;;;;;25.32;62.82;100528.72;4989215;28;19936;-55
2023/03/30 10:57:48;;;;;;;;;;;;;;;24.54;61.63;100520.22;4996584;28;19914;-51
2023/03/30 11:00:14;;;;;;;;;;;;;;;23.60;62.17;100548.78;5004104;28;19938;-54
2023/03/30 11:02:55;;;;;;;;;;;;;;;25.58;58.72;100531.00;4993918;28;19922;-52
2023/03/30 11:05:30;;;;;;;;;;;;;;;25.35;57.32;100538.28;4989988;28;19913;-57
2023/03/30 11:08:00;;;;;;;;;;;;;;;25.84;56.11;100529.66;4991943;28;19918;-55
2023/03/30 11:10:28;;;;;;;;;;;;;;;26.80;54.63;100542.59;4989889;28;19914;-53
2023/03/30 11:12:57;;;;;;;;;;;;;;;26.91;52.39;100531.06;5002683;28;19913;-52
2023/03/30 11:15:25;;;;;;;;;;;;;;;28.54;49.91;100537.13;4994011;28;19916;-54
2023/03/30 11:18:14;;;;;;;;;;;;;;;28.53;48.59;100549.25;4992599;28;19914;-54
2023/03/30 11:21:02;;;;;;;;;;;;;;;27.51;48.88;100552.84;4962420;28;19918;-52
2023/03/30 11:23:33;;;;;;;;;;;;;;;29.61;45.50;100534.56;5003207;28;19925;-52
2023/03/30 11:26:01;;;;;;;;;;;;;;;28.85;47.14;100538.91;4989310;28;19921;-55
2023/03/30 11:28:47;;;;;;;;;;;;;;;28.50;46.51;100542.50;4985691;28;19921;-53
2023/03/30 11:31:39;;;;;;;;;;;;;;;27.31;48.50;100545.91;4992144;28;19914;-53
2023/03/30 11:34:07;;;;;;;;;;;;;;;28.03;48.71;100518.34;4993234;28;19946;-51
2023/03/30 11:36:39;;;;;;;;;;;;;;;26.03;49.84;100524.88;4991599;28;19960;-54
2023/03/30 11:39:09;;;;;;;;;;;;;;;24.79;51.81;100534.63;4994460;28;20029;-52
2023/03/30 11:41:47;;;;;;;;;;;;;;;25.84;51.43;100535.97;4987639;28;19929;-51
2023/03/30 11:44:12;;;;;;;;;;;;;;;26.00;51.18;100558.34;4986700;28;19914;-51
2023/03/30 11:46:51;;;;;;;;;;;;;;;25.04;52.10;100538.84;4987607;28;19936;-50
2023/03/30 11:49:22;;;;;;;;;;;;;;;26.72;50.10;100542.19;4989538;28;20575;-52
2023/03/30 11:51:51;;;;;;;;;;;;;;;26.32;50.71;100542.06;4992643;28;19932;-51
2023/03/30 11:54:37;;;;;;;;;;;;;;;25.43;51.56;100539.50;4990735;28;19914;-53
2023/03/30 11:57:09;;;;;;;;;;;;;;;26.00;50.79;100538.34;4991034;28;19914;-56
2023/03/30 11:59:44;;;;;;;;;;;;;;;24.71;52.71;100534.19;4984515;28;19924;-54
2023/03/30 12:02:32;;;;;;;;;;;;;;;25.16;52.85;100543.84;4986988;28;19961;-55
2023/03/30 12:05:16;;;;;;;;;;;;;;;24.51;53.20;100567.28;4984720;28;19933;-55
2023/03/30 12:07:47;;;;;;;;;;;;;;;23.47;55.18;100535.81;4982829;28;19914;-51
2023/03/30 12:10:20;;;;;;;;;;;;;;;23.98;56.02;100528.94;4990458;28;19928;-54
2023/03/30 12:12:48;;;;;;;;;;;;;;;24.05;55.03;100553.97;4986724;28;19913;-55
2023/03/30 12:15:21;;;;;;;;;;;;;;;24.58;54.77;100559.53;4985176;28;19925;-53
2023/03/30 12:18:05;;;;;;;;;;;;;;;24.07;54.89;100550.97;4983261;28;19910;-53
2023/03/30 12:20:34;;;;;;;;;;;;;;;24.41;54.59;100560.06;4986144;28;19918;-53
2023/03/30 12:23:02;;;;;;;;;;;;;;;23.05;56.22;100566.22;4986042;28;19923;-55
2023/03/30 12:25:30;;;;;;;;;;;;;;;23.77;55.95;100552.97;4983252;28;19921;-53
2023/03/30 12:28:07;;;;;;;;;;;;;;;24.86;54.04;100555.00;4980155;28;19961;-53
2023/03/30 12:30:42;;;;;;;;;;;;;;;25.11;53.90;100552.13;4981076;28;19913;-54
2023/03/30 12:33:11;;;;;;;;;;;;;;;24.12;54.38;100564.53;4982641;28;19914;-53
2023/03/30 12:35:48;;;;;;;;;;;;;;;23.65;54.67;100533.44;4986938;28;19922;-53
2023/03/30 12:38:16;;;;;;;;;;;;;;;24.10;53.32;100535.88;4986176;28;19924;-55
2023/03/30 12:40:47;;;;;;;;;;;;;;;23.69;53.87;100542.66;4986407;28;19948;-54
2023/03/30 12:43:31;;;;;;;;;;;;;;;24.27;53.96;100557.25;4986038;28;19918;-50
2023/03/30 12:46:12;;;;;;;;;;;;;;;24.16;53.44;100538.25;4985551;28;19937;-52
2023/03/30 12:48:51;;;;;;;;;;;;;;;24.00;53.01;100561.41;4985047;28;19929;-53
2023/03/30 12:51:16;;;;;;;;;;;;;;;26.47;49.98;100552.66;4987170;28;19914;-55
2023/03/30 12:54:14;;;;;;;;;;;;;;;26.53;48.40;100588.22;4989056;28;19914;-55
2023/03/30 12:56:47;;;;;;;;;;;;;;;26.11;49.33;100537.03;5008044;28;19922;-55
2023/03/30 12:59:48;;;;;;;;;;;;;;;26.20;49.80;100537.94;4990942;28;19985;-56